sensor_id;sensor_type;location;lat;lon;timestamp;temperature;humidity
11280;DHT22;5696;50.928;6.960;2022-12-29T06:03:37;12.10;99.90
11280;DHT22;5696;50.928;6.960;2022-12-29T06:06:03;12.10;99.90
11280;DHT22;5696;50.928;6.960;2022-12-29T06:08:28;12.10;99.90
11280;DHT22;5696;50.928;6.960;2022-12-29T06:10:54;12.10;99.90
11280;DHT22;5696;50.928;6.960;2022-12-29T06:13:20;12.10;99.90
11280;DHT22;5696;50.928;6.960;2022-12-29T06:15:48;12.10;99.90
11280;DHT22;5696;50.928;6.960;2022-12-29T06:18:13;12.20;99.90
11280;DHT22;5696;50.928;6.960;2022-12-29T06:20:39;12.10;99.90
11280;DHT22;5696;50.928;6.960;2022-12-29T06:23:05;12.10;99.90
11280;DHT22;5696;50.928;6.960;2022-12-29T06:25:30;12.10;99.90
11280;DHT22;5696;50.928;6.960;2022-12-29T06:27:58;12.10;99.90
11280;DHT22;5696;50.928;6.960;2022-12-29T06:30:23;12.10;99.90
11280;DHT22;5696;50.928;6.960;2022-12-29T06:32:49;12.10;99.90
11280;DHT22;5696;50.928;6.960;2022-12-29T06:35:15;12.10;99.90
11280;DHT22;5696;50.928;6.960;2022-12-29T06:37:40;12.20;99.90
11280;DHT22;5696;50.928;6.960;2022-12-29T06:40:06;12.10;99.90
11280;DHT22;5696;50.928;6.960;2022-12-29T06:42:32;12.10;99.90
11280;DHT22;5696;50.928;6.960;2022-12-29T06:44:58;12.10;99.90
11280;DHT22;5696;50.928;6.960;2022-12-29T06:47:25;12.20;99.90
11280;DHT22;5696;50.928;6.960;2022-12-29T06:49:51;12.10;99.90
11280;DHT22;5696;50.928;6.960;2022-12-29T06:52:17;12.10;99.90
11280;DHT22;5696;50.928;6.960;2022-12-29T06:54:42;12.10;99.90
11280;DHT22;5696;50.928;6.960;2022-12-29T06:57:08;12.10;99.90
11280;DHT22;5696;50.928;6.960;2022-12-29T06:59:34;12.00;99.90
11280;DHT22;5696;50.928;6.960;2022-12-29T07:01:59;12.10;99.90
11280;DHT22;5696;50.928;6.960;2022-12-29T07:04:27;12.10;99.90
11280;DHT22;5696;50.928;6.960;2022-12-29T07:06:53;12.10;99.90
11280;DHT22;5696;50.928;6.960;2022-12-29T07:09:19;12.10;99.90
11280;DHT22;5696;50.928;6.960;2022-12-29T07:11:45;12.20;99.90
11280;DHT22;5696;50.928;6.960;2022-12-29T07:14:11;12.20;99.90
11280;DHT22;5696;50.928;6.960;2022-12-29T07:16:37;12.20;99.90
11280;DHT22;5696;50.928;6.960;2022-12-29T07:19:03;12.10;99.90
11280;DHT22;5696;50.928;6.960;2022-12-29T07:21:29;12.10;99.90
11280;DHT22;5696;50.928;6.960;2022-12-29T07:23:55;12.10;99.90
11280;DHT22;5696;50.928;6.960;2022-12-29T07:26:20;12.10;99.90
11280;DHT22;5696;50.928;6.960;2022-12-29T07:28:46;12.10;99.90
11280;DHT22;5696;50.928;6.960;2022-12-29T07:31:19;12.10;99.90
11280;DHT22;5696;50.928;6.960;2022-12-29T07:33:46;12.10;99.90
11280;DHT22;5696;50.928;6.960;2022-12-29T07:36:12;12.10;99.90
11280;DHT22;5696;50.928;6.960;2022-12-29T07:38:38;12.00;99.90
11280;DHT22;5696;50.928;6.960;2022-12-29T07:41:03;12.00;99.90
11280;DHT22;5696;50.928;6.960;2022-12-29T07:43:29;12.00;99.90
11280;DHT22;5696;50.928;6.960;2022-12-29T07:45:55;11.90;99.90
11280;DHT22;5696;50.928;6.960;2022-12-29T07:48:21;12.00;99.90
11280;DHT22;5696;50.928;6.960;2022-12-29T07:50:47;12.00;99.90
11280;DHT22;5696;50.928;6.960;2022-12-29T07:53:13;12.00;99.90
11280;DHT22;5696;50.928;6.960;2022-12-29T07:55:38;12.00;99.90
11280;DHT22;5696;50.928;6.960;2022-12-29T07:58:04;12.00;99.90
11280;DHT22;5696;50.928;6.960;2022-12-29T08:00:30;12.10;99.90
11280;DHT22;5696;50.928;6.960;2022-12-29T08:02:55;12.10;99.90
11280;DHT22;5696;50.928;6.960;2022-12-29T08:05:21;12.20;99.90
11280;DHT22;5696;50.928;6.960;2022-12-29T08:07:47;12.10;99.90
11280;DHT22;5696;50.928;6.960;2022-12-29T08:10:14;12.10;99.90
11280;DHT22;5696;50.928;6.960;2022-12-29T08:12:40;12.20;99.90
11280;DHT22;5696;50.928;6.960;2022-12-29T08:15:07;12.20;99.90
11280;DHT22;5696;50.928;6.960;2022-12-29T08:17:33;12.10;99.90
11280;DHT22;5696;50.928;6.960;2022-12-29T08:19:59;12.10;99.90
11280;DHT22;5696;50.928;6.960;2022-12-29T08:22:24;12.10;99.90
11280;DHT22;5696;50.928;6.960;2022-12-29T08:24:50;12.20;99.90
11280;DHT22;5696;50.928;6.960;2022-12-29T08:27:16;12.10;99.90
11280;DHT22;5696;50.928;6.960;2022-12-29T08:29:42;12.20;99.90
11280;DHT22;5696;50.928;6.960;2022-12-29T08:32:08;12.10;99.90
11280;DHT22;5696;50.928;6.960;2022-12-29T08:34:34;12.10;99.90
11280;DHT22;5696;50.928;6.960;2022-12-29T08:36:59;12.10;99.90
11280;DHT22;5696;50.928;6.960;2022-12-29T08:39:25;12.10;99.90
11280;DHT22;5696;50.928;6.960;2022-12-29T08:41:51;12.10;99.90
11280;DHT22;5696;50.928;6.960;2022-12-29T08:44:16;12.10;99.90
11280;DHT22;5696;50.928;6.960;2022-12-29T08:46:42;12.00;99.90
11280;DHT22;5696;50.928;6.960;2022-12-29T08:49:08;12.00;99.90
11280;DHT22;5696;50.928;6.960;2022-12-29T08:51:34;11.90;99.90
11280;DHT22;5696;50.928;6.960;2022-12-29T08:54:00;12.00;99.90
11280;DHT22;5696;50.928;6.960;2022-12-29T08:56:26;12.00;99.90
11280;DHT22;5696;50.928;6.960;2022-12-29T08:58:52;12.00;99.90
11280;DHT22;5696;50.928;6.960;2022-12-29T09:01:19;11.90;99.90
11280;DHT22;5696;50.928;6.960;2022-12-29T09:03:45;12.00;99.90
11280;DHT22;5696;50.928;6.960;2022-12-29T09:06:11;12.00;99.90
11280;DHT22;5696;50.928;6.960;2022-12-29T09:08:36;12.00;99.90
11280;DHT22;5696;50.928;6.960;2022-12-29T09:11:11;12.00;99.90
11280;DHT22;5696;50.928;6.960;2022-12-29T09:13:38;12.10;99.90
11280;DHT22;5696;50.928;6.960;2022-12-29T09:16:04;12.10;99.90
11280;DHT22;5696;50.928;6.960;2022-12-29T09:18:30;12.10;99.90
11280;DHT22;5696;50.928;6.960;2022-12-29T09:20:59;12.10;99.90
11280;DHT22;5696;50.928;6.960;2022-12-29T09:23:25;12.10;99.90
11280;DHT22;5696;50.928;6.960;2022-12-29T09:25:52;12.10;99.90
11280;DHT22;5696;50.928;6.960;2022-12-29T09:28:17;12.20;99.90
11280;DHT22;5696;50.928;6.960;2022-12-29T09:30:43;12.30;99.90
11280;DHT22;5696;50.928;6.960;2022-12-29T09:33:09;12.50;99.90
11280;DHT22;5696;50.928;6.960;2022-12-29T09:35:34;12.70;99.90
11280;DHT22;5696;50.928;6.960;2022-12-29T09:38:00;12.80;99.90
11280;DHT22;5696;50.928;6.960;2022-12-29T09:40:31;12.90;99.90
11280;DHT22;5696;50.928;6.960;2022-12-29T09:45:42;13.00;99.90
11280;DHT22;5696;50.928;6.960;2022-12-29T09:48:19;13.00;99.90
11280;DHT22;5696;50.928;6.960;2022-12-29T09:50:57;13.10;99.90
11280;DHT22;5696;50.928;6.960;2022-12-29T09:55:56;13.30;99.90
11280;DHT22;5696;50.928;6.960;2022-12-29T09:58:52;13.40;99.90
11280;DHT22;5696;50.928;6.960;2022-12-29T10:01:30;13.50;99.90
11280;DHT22;5696;50.928;6.960;2022-12-29T10:03:57;13.60;99.90
11280;DHT22;5696;50.928;6.960;2022-12-29T10:09:30;13.40;99.90
11280;DHT22;5696;50.928;6.960;2022-12-29T10:15:18;13.40;99.90
11280;DHT22;5696;50.928;6.960;2022-12-29T10:17:58;13.40;99.90
11280;DHT22;5696;50.928;6.960;2022-12-29T10:20:38;13.40;99.90
11280;DHT22;5696;50.928;6.960;2022-12-29T10:23:29;13.40;99.90
11280;DHT22;5696;50.928;6.960;2022-12-29T10:25:58;13.50;99.90
11280;DHT22;5696;50.928;6.960;2022-12-29T10:28:34;13.60;99.90
11280;DHT22;5696;50.928;6.960;2022-12-29T10:31:01;13.80;99.90
11280;DHT22;5696;50.928;6.960;2022-12-29T10:33:36;13.70;99.90
11280;DHT22;5696;50.928;6.960;2022-12-29T10:39:22;13.70;99.90
11280;DHT22;5696;50.928;6.960;2022-12-29T10:44:36;13.70;99.90
11280;DHT22;5696;50.928;6.960;2022-12-29T10:47:05;13.90;99.90
11280;DHT22;5696;50.928;6.960;2022-12-29T10:49:36;13.80;99.90
11280;DHT22;5696;50.928;6.960;2022-12-29T10:52:03;14.00;99.90
11280;DHT22;5696;50.928;6.960;2022-12-29T10:54:32;14.00;99.90
11280;DHT22;5696;50.928;6.960;2022-12-29T10:57:05;14.10;99.90
11280;DHT22;5696;50.928;6.960;2022-12-29T10:59:35;14.10;99.90
11280;DHT22;5696;50.928;6.960;2022-12-29T11:04:55;14.20;99.90
11280;DHT22;5696;50.928;6.960;2022-12-29T11:07:24;14.10;99.90
11280;DHT22;5696;50.928;6.960;2022-12-29T11:09:52;14.20;99.90
11280;DHT22;5696;50.928;6.960;2022-12-29T11:12:26;14.30;99.90
11280;DHT22;5696;50.928;6.960;2022-12-29T11:15:14;14.40;99.90
11280;DHT22;5696;50.928;6.960;2022-12-29T11:17:47;14.50;99.90
11280;DHT22;5696;50.928;6.960;2022-12-29T11:20:29;14.50;99.90
11280;DHT22;5696;50.928;6.960;2022-12-29T11:22:55;14.50;99.90
11280;DHT22;5696;50.928;6.960;2022-12-29T11:25:21;14.60;99.90
11280;DHT22;5696;50.928;6.960;2022-12-29T11:28:15;14.70;99.90
11280;DHT22;5696;50.928;6.960;2022-12-29T11:30:41;14.70;99.90
11280;DHT22;5696;50.928;6.960;2022-12-29T11:33:08;14.20;99.90
11280;DHT22;5696;50.928;6.960;2022-12-29T11:35:43;14.30;99.90
11280;DHT22;5696;50.928;6.960;2022-12-29T11:38:21;14.30;99.90
11280;DHT22;5696;50.928;6.960;2022-12-29T11:40:49;14.20;99.90
11280;DHT22;5696;50.928;6.960;2022-12-29T11:43:38;14.00;99.90
11280;DHT22;5696;50.928;6.960;2022-12-29T11:46:05;14.10;99.90
11280;DHT22;5696;50.928;6.960;2022-12-29T11:48:41;14.00;99.90
11280;DHT22;5696;50.928;6.960;2022-12-29T11:51:08;14.10;99.90
11280;DHT22;5696;50.928;6.960;2022-12-29T11:53:42;14.00;99.90
11280;DHT22;5696;50.928;6.960;2022-12-29T11:56:16;13.80;99.90
11280;DHT22;5696;50.928;6.960;2022-12-29T11:58:42;14.00;99.90
11280;DHT22;5696;50.928;6.960;2022-12-29T12:01:34;13.70;99.90
11280;DHT22;5696;50.928;6.960;2022-12-29T12:04:03;13.70;99.90
11280;DHT22;5696;50.928;6.960;2022-12-29T12:06:33;13.80;99.90
11280;DHT22;5696;50.928;6.960;2022-12-29T12:09:10;13.90;99.90
11280;DHT22;5696;50.928;6.960;2022-12-29T12:11:42;13.90;99.90
11280;DHT22;5696;50.928;6.960;2022-12-29T12:14:26;14.00;99.90
11280;DHT22;5696;50.928;6.960;2022-12-29T12:20:00;14.00;99.90
11280;DHT22;5696;50.928;6.960;2022-12-29T12:22:35;14.00;99.90
11280;DHT22;5696;50.928;6.960;2022-12-29T12:25:17;13.90;99.90
11280;DHT22;5696;50.928;6.960;2022-12-29T12:30:37;13.80;99.90
11280;DHT22;5696;50.928;6.960;2022-12-29T12:33:05;13.60;99.90
11280;DHT22;5696;50.928;6.960;2022-12-29T12:35:38;13.80;99.90
11280;DHT22;5696;50.928;6.960;2022-12-29T12:41:11;13.60;99.90
11280;DHT22;5696;50.928;6.960;2022-12-29T12:43:51;13.60;99.90
11280;DHT22;5696;50.928;6.960;2022-12-29T12:52:18;13.80;99.90
11280;DHT22;5696;50.928;6.960;2022-12-29T13:00:13;13.50;99.90
11280;DHT22;5696;50.928;6.960;2022-12-29T13:03:13;13.50;99.90
11280;DHT22;5696;50.928;6.960;2022-12-29T13:05:50;13.70;99.90
11280;DHT22;5696;50.928;6.960;2022-12-29T13:16:50;13.80;99.90
11280;DHT22;5696;50.928;6.960;2022-12-29T13:22:05;13.50;99.90
11280;DHT22;5696;50.928;6.960;2022-12-29T13:38:38;12.90;99.90
11280;DHT22;5696;50.928;6.960;2022-12-29T13:41:27;12.80;99.90
11280;DHT22;5696;50.928;6.960;2022-12-29T13:43:55;12.80;99.90
11280;DHT22;5696;50.928;6.960;2022-12-29T13:46:27;12.70;99.90
11280;DHT22;5696;50.928;6.960;2022-12-29T13:52:05;12.60;99.90
11280;DHT22;5696;50.928;6.960;2022-12-29T13:54:44;12.60;99.90
11280;DHT22;5696;50.928;6.960;2022-12-29T14:00:03;12.70;99.90
11280;DHT22;5696;50.928;6.960;2022-12-29T14:05:28;12.60;99.90
11280;DHT22;5696;50.928;6.960;2022-12-29T14:08:02;12.60;99.90
11280;DHT22;5696;50.928;6.960;2022-12-29T14:10:46;12.60;99.90
11280;DHT22;5696;50.928;6.960;2022-12-29T14:13:21;12.60;99.90
11280;DHT22;5696;50.928;6.960;2022-12-29T14:15:55;12.50;99.90
11280;DHT22;5696;50.928;6.960;2022-12-29T14:18:32;12.50;99.90
11280;DHT22;5696;50.928;6.960;2022-12-29T14:21:01;12.50;99.90
11280;DHT22;5696;50.928;6.960;2022-12-29T14:28:41;12.40;99.90
11280;DHT22;5696;50.928;6.960;2022-12-29T14:36:52;12.50;99.90
11280;DHT22;5696;50.928;6.960;2022-12-29T14:39:43;12.50;99.90
11280;DHT22;5696;50.928;6.960;2022-12-29T14:44:57;12.60;99.90
11280;DHT22;5696;50.928;6.960;2022-12-29T14:47:31;12.50;99.90
11280;DHT22;5696;50.928;6.960;2022-12-29T14:52:59;12.20;99.90
11280;DHT22;5696;50.928;6.960;2022-12-29T14:55:46;12.30;99.90
11280;DHT22;5696;50.928;6.960;2022-12-29T14:58:24;12.20;99.90
11280;DHT22;5696;50.928;6.960;2022-12-29T15:00:51;12.20;99.90
11280;DHT22;5696;50.928;6.960;2022-12-29T15:03:19;12.00;99.90
11280;DHT22;5696;50.928;6.960;2022-12-29T15:05:49;11.90;99.90
11280;DHT22;5696;50.928;6.960;2022-12-29T15:08:22;11.90;99.90
11280;DHT22;5696;50.928;6.960;2022-12-29T15:11:06;11.80;99.90
11280;DHT22;5696;50.928;6.960;2022-12-29T15:13:37;11.90;99.90
11280;DHT22;5696;50.928;6.960;2022-12-29T15:16:04;11.70;99.90
11280;DHT22;5696;50.928;6.960;2022-12-29T15:18:32;11.70;99.90
11280;DHT22;5696;50.928;6.960;2022-12-29T15:21:00;11.60;99.90
11280;DHT22;5696;50.928;6.960;2022-12-29T15:23:27;11.50;99.90
11280;DHT22;5696;50.928;6.960;2022-12-29T15:28:25;11.20;99.90
11280;DHT22;5696;50.928;6.960;2022-12-29T15:31:01;11.10;99.90
11280;DHT22;5696;50.928;6.960;2022-12-29T15:33:28;11.00;99.90
11280;DHT22;5696;50.928;6.960;2022-12-29T15:35:55;10.90;99.90
11280;DHT22;5696;50.928;6.960;2022-12-29T15:38:27;10.80;99.90
11280;DHT22;5696;50.928;6.960;2022-12-29T15:40:57;10.80;99.90
11280;DHT22;5696;50.928;6.960;2022-12-29T15:46:01;10.70;99.90
11280;DHT22;5696;50.928;6.960;2022-12-29T15:48:27;10.70;99.90
11280;DHT22;5696;50.928;6.960;2022-12-29T15:50:53;10.60;99.90
11280;DHT22;5696;50.928;6.960;2022-12-29T15:53:28;10.60;99.90
11280;DHT22;5696;50.928;6.960;2022-12-29T15:56:02;10.60;99.90
11280;DHT22;5696;50.928;6.960;2022-12-29T15:58:40;10.50;99.90
11280;DHT22;5696;50.928;6.960;2022-12-29T16:01:17;10.40;99.90
11280;DHT22;5696;50.928;6.960;2022-12-29T16:03:45;10.40;99.90
11280;DHT22;5696;50.928;6.960;2022-12-29T16:06:27;10.30;99.90
11280;DHT22;5696;50.928;6.960;2022-12-29T16:11:29;10.20;99.90
11280;DHT22;5696;50.928;6.960;2022-12-29T16:13:56;10.20;99.90
11280;DHT22;5696;50.928;6.960;2022-12-29T16:16:48;10.10;99.90
11280;DHT22;5696;50.928;6.960;2022-12-29T16:21:55;10.10;99.90
11280;DHT22;5696;50.928;6.960;2022-12-29T16:24:26;10.00;99.90
11280;DHT22;5696;50.928;6.960;2022-12-29T16:27:06;10.00;99.90
11280;DHT22;5696;50.928;6.960;2022-12-29T16:29:33;10.00;99.90
11280;DHT22;5696;50.928;6.960;2022-12-29T16:32:00;10.00;99.90
11280;DHT22;5696;50.928;6.960;2022-12-29T16:34:35;9.90;99.90
11280;DHT22;5696;50.928;6.960;2022-12-29T16:37:28;9.90;99.90
11280;DHT22;5696;50.928;6.960;2022-12-29T16:39:55;9.90;99.90
11280;DHT22;5696;50.928;6.960;2022-12-29T16:42:57;9.80;99.90
11280;DHT22;5696;50.928;6.960;2022-12-29T16:50:42;9.80;99.90
11280;DHT22;5696;50.928;6.960;2022-12-29T16:53:29;9.80;99.90
11280;DHT22;5696;50.928;6.960;2022-12-29T16:55:57;9.70;99.90
11280;DHT22;5696;50.928;6.960;2022-12-29T16:58:27;9.70;99.90
11280;DHT22;5696;50.928;6.960;2022-12-29T17:01:00;9.60;99.90
11280;DHT22;5696;50.928;6.960;2022-12-29T17:03:34;9.60;99.90
11280;DHT22;5696;50.928;6.960;2022-12-29T17:06:00;9.50;99.90
11280;DHT22;5696;50.928;6.960;2022-12-29T17:08:26;9.40;99.90
11280;DHT22;5696;50.928;6.960;2022-12-29T17:10:54;9.40;99.90
11280;DHT22;5696;50.928;6.960;2022-12-29T17:13:39;9.40;99.90
11280;DHT22;5696;50.928;6.960;2022-12-29T17:16:06;9.40;99.90
11280;DHT22;5696;50.928;6.960;2022-12-29T17:18:35;9.40;99.90
11280;DHT22;5696;50.928;6.960;2022-12-29T17:21:01;9.40;99.90
11280;DHT22;5696;50.928;6.960;2022-12-29T17:23:29;9.50;99.90
11280;DHT22;5696;50.928;6.960;2022-12-29T17:25:56;9.50;99.90
11280;DHT22;5696;50.928;6.960;2022-12-29T17:28:25;9.60;99.90
11280;DHT22;5696;50.928;6.960;2022-12-29T17:30:58;9.60;99.90
11280;DHT22;5696;50.928;6.960;2022-12-29T17:33:37;9.60;99.90
11280;DHT22;5696;50.928;6.960;2022-12-29T17:36:04;9.60;99.90
11280;DHT22;5696;50.928;6.960;2022-12-29T17:38:33;9.60;99.90
11280;DHT22;5696;50.928;6.960;2022-12-29T17:40:59;9.60;99.90
11280;DHT22;5696;50.928;6.960;2022-12-29T17:43:25;9.60;99.90
11280;DHT22;5696;50.928;6.960;2022-12-29T17:45:56;9.60;99.90
11280;DHT22;5696;50.928;6.960;2022-12-29T17:48:23;9.60;99.90
11280;DHT22;5696;50.928;6.960;2022-12-29T17:50:50;9.60;99.90
11280;DHT22;5696;50.928;6.960;2022-12-29T17:53:23;9.60;99.90
11280;DHT22;5696;50.928;6.960;2022-12-29T17:55:50;9.60;99.90
11280;DHT22;5696;50.928;6.960;2022-12-29T17:58:26;9.50;99.90
11280;DHT22;5696;50.928;6.960;2022-12-29T18:00:54;9.50;99.90
11280;DHT22;5696;50.928;6.960;2022-12-29T18:03:37;9.40;99.90
11280;DHT22;5696;50.928;6.960;2022-12-29T18:06:04;9.40;99.90
11280;DHT22;5696;50.928;6.960;2022-12-29T18:08:34;9.40;99.90
11280;DHT22;5696;50.928;6.960;2022-12-29T18:11:00;9.40;99.90
11280;DHT22;5696;50.928;6.960;2022-12-29T18:13:29;9.40;99.90
11280;DHT22;5696;50.928;6.960;2022-12-29T18:15:55;9.40;99.90
11280;DHT22;5696;50.928;6.960;2022-12-29T18:18:23;9.40;99.90
11280;DHT22;5696;50.928;6.960;2022-12-29T18:20:52;9.40;99.90
11280;DHT22;5696;50.928;6.960;2022-12-29T18:23:19;9.40;99.90
11280;DHT22;5696;50.928;6.960;2022-12-29T18:28:28;9.50;99.90
11280;DHT22;5696;50.928;6.960;2022-12-29T18:30:56;9.50;99.90
11280;DHT22;5696;50.928;6.960;2022-12-29T18:33:21;9.60;99.90
11280;DHT22;5696;50.928;6.960;2022-12-29T18:35:58;9.60;99.90
11280;DHT22;5696;50.928;6.960;2022-12-29T18:38:24;9.50;99.90
11280;DHT22;5696;50.928;6.960;2022-12-29T18:40:50;9.60;99.90
11280;DHT22;5696;50.928;6.960;2022-12-29T18:43:17;9.50;99.90
11280;DHT22;5696;50.928;6.960;2022-12-29T18:45:44;9.50;99.90
11280;DHT22;5696;50.928;6.960;2022-12-29T18:48:14;9.50;99.90
11280;DHT22;5696;50.928;6.960;2022-12-29T18:50:39;9.50;99.90
11280;DHT22;5696;50.928;6.960;2022-12-29T18:53:05;9.50;99.90
11280;DHT22;5696;50.928;6.960;2022-12-29T18:55:31;9.50;99.90
11280;DHT22;5696;50.928;6.960;2022-12-29T18:57:56;9.50;99.90
11280;DHT22;5696;50.928;6.960;2022-12-29T19:00:22;9.50;99.90
11280;DHT22;5696;50.928;6.960;2022-12-29T19:02:50;9.50;99.90
11280;DHT22;5696;50.928;6.960;2022-12-29T19:05:26;9.60;99.90
11280;DHT22;5696;50.928;6.960;2022-12-29T19:07:53;9.60;99.90
11280;DHT22;5696;50.928;6.960;2022-12-29T19:10:20;9.60;99.90
11280;DHT22;5696;50.928;6.960;2022-12-29T19:12:45;9.60;99.90
11280;DHT22;5696;50.928;6.960;2022-12-29T19:15:23;9.60;99.90
11280;DHT22;5696;50.928;6.960;2022-12-29T19:17:50;9.60;99.90
11280;DHT22;5696;50.928;6.960;2022-12-29T19:20:39;9.60;99.90
11280;DHT22;5696;50.928;6.960;2022-12-29T19:23:11;9.60;99.90
11280;DHT22;5696;50.928;6.960;2022-12-29T19:25:38;9.60;99.90
11280;DHT22;5696;50.928;6.960;2022-12-29T19:28:05;9.50;99.90
11280;DHT22;5696;50.928;6.960;2022-12-29T19:30:31;9.50;99.90
11280;DHT22;5696;50.928;6.960;2022-12-29T19:32:58;9.40;99.90
11280;DHT22;5696;50.928;6.960;2022-12-29T19:35:26;9.40;99.90
11280;DHT22;5696;50.928;6.960;2022-12-29T19:37:52;9.30;99.90
11280;DHT22;5696;50.928;6.960;2022-12-29T19:40:21;9.30;99.90
11280;DHT22;5696;50.928;6.960;2022-12-29T19:42:47;9.30;99.90
11280;DHT22;5696;50.928;6.960;2022-12-29T19:45:14;9.20;99.90
11280;DHT22;5696;50.928;6.960;2022-12-29T19:47:40;9.20;99.90
11280;DHT22;5696;50.928;6.960;2022-12-29T19:50:07;9.20;99.90
11280;DHT22;5696;50.928;6.960;2022-12-29T19:52:33;9.10;99.90
11280;DHT22;5696;50.928;6.960;2022-12-29T19:55:00;9.10;99.90
11280;DHT22;5696;50.928;6.960;2022-12-29T19:57:27;9.00;99.90
11280;DHT22;5696;50.928;6.960;2022-12-29T19:59:52;9.00;99.90
11280;DHT22;5696;50.928;6.960;2022-12-29T20:02:21;8.90;99.90
11280;DHT22;5696;50.928;6.960;2022-12-29T20:04:48;8.90;99.90
11280;DHT22;5696;50.928;6.960;2022-12-29T20:07:14;8.90;99.90
11280;DHT22;5696;50.928;6.960;2022-12-29T20:09:42;8.80;99.90
11280;DHT22;5696;50.928;6.960;2022-12-29T20:12:07;8.90;99.90
11280;DHT22;5696;50.928;6.960;2022-12-29T20:14:38;8.80;99.90
11280;DHT22;5696;50.928;6.960;2022-12-29T20:17:05;8.80;99.90
11280;DHT22;5696;50.928;6.960;2022-12-29T20:19:32;8.70;99.90
11280;DHT22;5696;50.928;6.960;2022-12-29T20:21:58;8.70;99.90
11280;DHT22;5696;50.928;6.960;2022-12-29T20:24:24;8.60;99.90
11280;DHT22;5696;50.928;6.960;2022-12-29T20:26:49;8.60;99.90
11280;DHT22;5696;50.928;6.960;2022-12-29T20:29:17;8.60;99.90
11280;DHT22;5696;50.928;6.960;2022-12-29T20:31:43;8.50;99.90
11280;DHT22;5696;50.928;6.960;2022-12-29T20:34:09;8.50;99.90
11280;DHT22;5696;50.928;6.960;2022-12-29T20:36:38;8.50;99.90
11280;DHT22;5696;50.928;6.960;2022-12-29T20:39:08;8.50;99.90
11280;DHT22;5696;50.928;6.960;2022-12-29T20:41:34;8.40;99.90
11280;DHT22;5696;50.928;6.960;2022-12-29T20:44:00;8.30;99.90
11280;DHT22;5696;50.928;6.960;2022-12-29T20:46:26;8.30;99.90
11280;DHT22;5696;50.928;6.960;2022-12-29T20:48:52;8.20;99.90
11280;DHT22;5696;50.928;6.960;2022-12-29T20:51:18;8.20;99.90
11280;DHT22;5696;50.928;6.960;2022-12-29T20:53:45;8.20;99.90
11280;DHT22;5696;50.928;6.960;2022-12-29T20:56:17;8.10;99.90
11280;DHT22;5696;50.928;6.960;2022-12-29T20:58:43;8.10;99.90
11280;DHT22;5696;50.928;6.960;2022-12-29T21:01:11;8.10;99.90
11280;DHT22;5696;50.928;6.960;2022-12-29T21:03:38;8.20;99.90
11280;DHT22;5696;50.928;6.960;2022-12-29T21:06:10;8.20;99.90
11280;DHT22;5696;50.928;6.960;2022-12-29T21:08:39;8.30;99.90
11280;DHT22;5696;50.928;6.960;2022-12-29T21:11:05;8.30;99.90
11280;DHT22;5696;50.928;6.960;2022-12-29T21:13:31;8.30;99.90
11280;DHT22;5696;50.928;6.960;2022-12-29T21:15:58;8.30;99.90
11280;DHT22;5696;50.928;6.960;2022-12-29T21:18:25;8.30;99.90
11280;DHT22;5696;50.928;6.960;2022-12-29T21:20:59;8.30;99.90
11280;DHT22;5696;50.928;6.960;2022-12-29T21:23:25;8.20;99.90
11280;DHT22;5696;50.928;6.960;2022-12-29T21:25:51;8.20;99.90
11280;DHT22;5696;50.928;6.960;2022-12-29T21:28:19;8.20;99.90
11280;DHT22;5696;50.928;6.960;2022-12-29T21:30:44;8.20;99.90
11280;DHT22;5696;50.928;6.960;2022-12-29T21:33:11;8.10;99.90
11280;DHT22;5696;50.928;6.960;2022-12-29T21:35:37;8.20;99.90
11280;DHT22;5696;50.928;6.960;2022-12-29T21:38:04;8.10;99.90
11280;DHT22;5696;50.928;6.960;2022-12-29T21:40:30;8.00;99.90
11280;DHT22;5696;50.928;6.960;2022-12-29T21:42:56;8.10;99.90
11280;DHT22;5696;50.928;6.960;2022-12-29T21:45:22;8.10;99.90
11280;DHT22;5696;50.928;6.960;2022-12-29T21:48:00;8.10;99.90
11280;DHT22;5696;50.928;6.960;2022-12-29T21:50:47;8.10;99.90
11280;DHT22;5696;50.928;6.960;2022-12-29T21:53:36;8.10;99.90
11280;DHT22;5696;50.928;6.960;2022-12-29T21:56:13;8.10;99.90
11280;DHT22;5696;50.928;6.960;2022-12-29T21:58:42;8.00;99.90
11280;DHT22;5696;50.928;6.960;2022-12-29T22:01:28;8.00;99.90
11280;DHT22;5696;50.928;6.960;2022-12-29T22:04:15;7.90;99.90
11280;DHT22;5696;50.928;6.960;2022-12-29T22:07:00;7.80;99.90
11280;DHT22;5696;50.928;6.960;2022-12-29T22:09:45;7.90;99.90
11280;DHT22;5696;50.928;6.960;2022-12-29T22:12:30;7.90;99.90
11280;DHT22;5696;50.928;6.960;2022-12-29T22:15:14;7.80;99.90
11280;DHT22;5696;50.928;6.960;2022-12-29T22:17:48;7.80;99.90
11280;DHT22;5696;50.928;6.960;2022-12-29T22:20:14;7.70;99.90
11280;DHT22;5696;50.928;6.960;2022-12-29T22:22:40;7.70;99.90
11280;DHT22;5696;50.928;6.960;2022-12-29T22:25:06;7.60;99.90
11280;DHT22;5696;50.928;6.960;2022-12-29T22:27:32;7.60;99.90
11280;DHT22;5696;50.928;6.960;2022-12-29T22:29:57;7.50;99.90
11280;DHT22;5696;50.928;6.960;2022-12-29T22:32:23;7.50;99.90
11280;DHT22;5696;50.928;6.960;2022-12-29T22:34:48;7.40;99.90
11280;DHT22;5696;50.928;6.960;2022-12-29T22:37:15;7.40;99.90
11280;DHT22;5696;50.928;6.960;2022-12-29T22:39:41;7.40;99.90
11280;DHT22;5696;50.928;6.960;2022-12-29T22:42:06;7.40;99.90
11280;DHT22;5696;50.928;6.960;2022-12-29T22:44:32;7.40;99.90
11280;DHT22;5696;50.928;6.960;2022-12-29T22:46:58;7.40;99.90
11280;DHT22;5696;50.928;6.960;2022-12-29T22:49:24;7.30;99.90
11280;DHT22;5696;50.928;6.960;2022-12-29T22:51:50;7.40;99.90
11280;DHT22;5696;50.928;6.960;2022-12-29T22:54:15;7.40;99.90
11280;DHT22;5696;50.928;6.960;2022-12-29T22:56:42;7.40;99.90
11280;DHT22;5696;50.928;6.960;2022-12-29T22:59:09;7.40;99.90
11280;DHT22;5696;50.928;6.960;2022-12-29T23:01:35;7.40;99.90
11280;DHT22;5696;50.928;6.960;2022-12-29T23:04:01;7.30;99.90
11280;DHT22;5696;50.928;6.960;2022-12-29T23:06:27;7.30;99.90
